VATSIM kuvia tänne

<< < (253/322) > >>

flykarppa:
NAX5627 EFRO-EFHK ehtoolla..
startuppia menossa..


lineuppia menossa..


Kiitokset lennonjohtoihin kaikille , loppumatkasta olisi saanut kuvattu tosi harvinaista herkkua kun pimeni kabiinista molemmat NDt ja sitä rataa muttei riittänyt aika sellaiseen.. 7700 koodilla loppumatka Vantaalle..
jari

Dreamliner:
FIN5 EFHK-KJFK


LekaP:
Nyt on Henryllä oikea kone 

Dreamliner:
Quote

Nyt on Henryllä oikea kone 


  Niin taitaa olla! Mutta tämä on myös kiva peli:

AUA36KD LOWW-LOWG


flykarppa:
NAX5632 EFHK-EFIV ja Capitän Saikkonen pongattu myös Vantaalla, toim.huom.



Ja testi mielellä RNAV04 ja eihän siitä muuta tullut kuin GA..(EFIV 291420Z 03005KT 2000 BCFG OVC003 02/02 Q0976 0419//95)


no viimenää ilssi22 antoi jo paremman tuloksen..

jari

Navigation

Up one level

Next page

Previous page